createdAt,value
2023-01-05T00:01:47.672Z,11.00
2023-01-05T00:04:15.401Z,11.00
2023-01-05T00:06:43.271Z,10.80
2023-01-05T00:09:12.525Z,10.80
2023-01-05T00:11:57.364Z,11.10
2023-01-05T00:15:10.044Z,10.00
2023-01-05T00:21:54.836Z,10.60
2023-01-05T00:24:42.839Z,10.60
2023-01-05T00:27:10.003Z,10.70
2023-01-05T00:29:36.913Z,10.50
2023-01-05T00:32:03.860Z,10.50
2023-01-05T00:34:30.836Z,10.40
2023-01-05T00:37:23.903Z,11.20
2023-01-05T00:39:51.945Z,10.40
2023-01-05T00:42:32.619Z,10.40
2023-01-05T00:44:59.522Z,10.40
2023-01-05T00:47:26.161Z,10.30
2023-01-05T00:49:53.130Z,11.00
2023-01-05T00:52:19.953Z,10.50
2023-01-05T00:55:38.815Z,10.40
2023-01-05T00:58:26.848Z,10.20
2023-01-05T01:02:23.285Z,10.50
2023-01-05T01:04:50.525Z,10.40
2023-01-05T01:07:17.565Z,10.70
2023-01-05T01:09:44.508Z,10.70
2023-01-05T01:13:26.572Z,10.30
2023-01-05T01:15:56.785Z,10.40
2023-01-05T01:19:52.202Z,10.60
2023-01-05T01:22:19.233Z,10.40
2023-01-05T01:25:07.110Z,10.50
2023-01-05T01:27:34.135Z,10.50
2023-01-05T01:30:01.299Z,10.80
2023-01-05T01:32:28.910Z,10.50
2023-01-05T01:34:56.035Z,10.60
2023-01-05T01:52:32.808Z,10.50
2023-01-05T01:55:06.922Z,10.20
2023-01-05T01:57:34.738Z,10.20
2023-01-05T02:00:07.705Z,10.80
2023-01-05T02:02:45.975Z,10.00
2023-01-05T02:05:16.401Z,10.20
2023-01-05T02:07:46.242Z,10.30
2023-01-05T02:10:16.067Z,10.30
2023-01-05T02:12:58.611Z,10.30
2023-01-05T02:15:35.247Z,10.40
2023-01-05T02:18:12.974Z,10.40
2023-01-05T02:20:58.194Z,10.50
2023-01-05T02:23:59.014Z,10.50
2023-01-05T02:26:51.686Z,10.40
2023-01-05T02:29:46.184Z,10.50
2023-01-05T02:32:19.329Z,10.50
2023-01-05T02:34:57.622Z,10.50
2023-01-05T02:37:32.309Z,10.60
2023-01-05T02:40:03.541Z,10.50
2023-01-05T02:42:36.021Z,10.60
2023-01-05T02:45:04.258Z,10.60
2023-01-05T02:47:42.246Z,10.50
2023-01-05T02:50:15.231Z,10.60
2023-01-05T02:52:49.601Z,10.50
2023-01-05T02:55:20.673Z,10.50
2023-01-05T02:57:55.565Z,10.50
2023-01-05T03:00:28.684Z,10.60
2023-01-05T03:03:01.419Z,11.30
2023-01-05T03:05:33.959Z,10.50
2023-01-05T03:08:07.545Z,10.50
2023-01-05T03:11:04.643Z,10.40
2023-01-05T03:13:41.350Z,10.50
2023-01-05T03:16:12.833Z,10.40
2023-01-05T03:18:55.342Z,10.40
2023-01-05T03:21:24.504Z,10.50
2023-01-05T03:24:11.359Z,10.50
2023-01-05T03:26:57.046Z,10.40
2023-01-05T03:29:42.053Z,10.60
2023-01-05T03:32:35.330Z,10.50
2023-01-05T03:35:26.661Z,10.40
2023-01-05T03:37:58.351Z,10.40
2023-01-05T03:40:30.009Z,10.80
2023-01-05T03:42:58.076Z,10.50
2023-01-05T03:45:31.566Z,10.60
2023-01-05T03:47:58.515Z,10.50
2023-01-05T03:50:28.303Z,10.80
2023-01-05T03:52:54.845Z,10.80
2023-01-05T03:55:21.452Z,10.50
2023-01-05T03:57:51.610Z,10.50
2023-01-05T04:00:19.811Z,10.50
2023-01-05T04:02:50.173Z,10.60
2023-01-05T04:05:20.440Z,10.60
2023-01-05T04:07:48.430Z,10.50
2023-01-05T04:10:15.776Z,10.50
2023-01-05T04:12:43.497Z,10.60
2023-01-05T04:15:11.269Z,10.50
2023-01-05T04:17:38.068Z,10.40
2023-01-05T04:20:05.647Z,10.60
2023-01-05T04:22:33.301Z,10.40
2023-01-05T04:25:00.507Z,10.50
2023-01-05T04:27:29.254Z,10.50
2023-01-05T04:29:55.762Z,10.50
2023-01-05T04:32:22.303Z,10.50
2023-01-05T04:34:49.038Z,10.60
2023-01-05T04:37:18.077Z,10.70
2023-01-05T04:39:44.669Z,10.50
2023-01-05T04:42:13.050Z,10.60
2023-01-05T04:44:40.670Z,10.50
2023-01-05T04:47:07.243Z,10.60
2023-01-05T04:49:38.504Z,10.60
2023-01-05T04:52:06.936Z,10.70
2023-01-05T04:54:34.380Z,10.60
2023-01-05T04:57:03.344Z,10.60
2023-01-05T04:59:30.972Z,10.50
2023-01-05T05:02:01.627Z,10.60
2023-01-05T05:04:30.573Z,10.60
2023-01-05T05:06:58.241Z,10.50
2023-01-05T05:09:27.422Z,10.50
2023-01-05T05:11:54.409Z,10.70
2023-01-05T05:14:22.938Z,10.40
2023-01-05T05:16:50.109Z,10.50
2023-01-05T05:19:16.663Z,10.50
2023-01-05T05:21:43.537Z,11.30
2023-01-05T05:24:11.022Z,10.50
2023-01-05T05:26:41.620Z,10.50
2023-01-05T05:29:08.140Z,10.40
2023-01-05T05:31:35.196Z,10.50
2023-01-05T05:34:02.403Z,10.90
2023-01-05T05:36:28.938Z,10.60
2023-01-05T05:38:55.823Z,10.60
2023-01-05T05:41:22.341Z,10.70
2023-01-05T05:43:48.868Z,10.70
2023-01-05T05:46:15.502Z,10.60
2023-01-05T05:48:42.086Z,10.60
2023-01-05T05:51:09.272Z,10.50
2023-01-05T05:53:35.768Z,10.90
2023-01-05T05:56:07.737Z,10.70
2023-01-05T05:58:34.280Z,10.50
2023-01-05T06:01:00.792Z,10.90
2023-01-05T06:03:27.351Z,10.70
2023-01-05T06:05:54.062Z,10.90
2023-01-05T06:08:21.296Z,10.60
2023-01-05T06:10:48.346Z,10.60
2023-01-05T06:13:15.132Z,10.50
2023-01-05T06:15:42.233Z,10.60
2023-01-05T06:18:09.186Z,10.50
2023-01-05T06:20:35.791Z,10.40
2023-01-05T06:23:02.355Z,10.50
2023-01-05T06:25:29.511Z,10.50
2023-01-05T06:27:56.089Z,10.30
2023-01-05T06:30:22.609Z,10.30
2023-01-05T06:32:49.178Z,10.30
2023-01-05T06:35:16.345Z,10.20
2023-01-05T06:37:42.857Z,10.20
2023-01-05T06:40:10.957Z,10.90
2023-01-05T06:42:38.238Z,10.10
2023-01-05T06:45:06.270Z,10.20
2023-01-05T06:47:33.071Z,10.20
2023-01-05T06:49:59.612Z,10.00
2023-01-05T06:52:26.134Z,10.30
2023-01-05T06:54:52.646Z,10.30
2023-01-05T06:57:19.161Z,10.30
2023-01-05T06:59:46.353Z,10.90
2023-01-05T07:02:14.172Z,10.30
2023-01-05T07:04:40.714Z,10.10
2023-01-05T07:07:08.381Z,10.00
2023-01-05T07:09:34.891Z,10.10
2023-01-05T07:12:01.416Z,10.10
2023-01-05T07:14:27.959Z,10.10
2023-01-05T07:16:55.230Z,10.10
2023-01-05T07:19:21.763Z,10.10
2023-01-05T07:21:53.242Z,10.00
2023-01-05T07:24:23.076Z,10.20
2023-01-05T07:26:49.731Z,10.10
2023-01-05T07:29:16.467Z,10.10
2023-01-05T07:31:43.118Z,10.10
2023-01-05T07:34:10.743Z,10.20
2023-01-05T07:36:37.215Z,10.00
2023-01-05T07:39:03.936Z,10.50
2023-01-05T07:41:30.461Z,10.00
2023-01-05T07:43:56.986Z,10.20
2023-01-05T07:46:23.538Z,10.10
2023-01-05T07:48:50.108Z,10.00
2023-01-05T07:51:17.655Z,10.60
2023-01-05T07:53:44.845Z,10.10
2023-01-05T07:56:12.639Z,10.00
2023-01-05T07:58:39.433Z,9.90
2023-01-05T08:01:07.816Z,10.10
2023-01-05T08:03:35.076Z,10.10
2023-01-05T08:06:04.271Z,10.40
2023-01-05T08:08:31.428Z,10.10
2023-01-05T08:10:57.929Z,10.10
2023-01-05T08:13:42.752Z,10.20
2023-01-05T08:16:09.390Z,10.20
2023-01-05T08:18:35.920Z,10.20
2023-01-05T08:21:03.599Z,10.30
2023-01-05T08:23:31.662Z,10.20
2023-01-05T08:26:03.806Z,10.20
2023-01-05T08:28:35.309Z,10.30
2023-01-05T08:31:03.369Z,10.20
2023-01-05T08:33:30.011Z,10.50
2023-01-05T08:35:59.559Z,10.40
2023-01-05T08:38:26.329Z,10.30
2023-01-05T08:40:56.946Z,10.30
2023-01-05T08:43:23.450Z,10.50
2023-01-05T08:45:49.993Z,10.30
2023-01-05T08:48:16.513Z,10.60
2023-01-05T08:50:43.057Z,10.90
2023-01-05T08:53:09.677Z,10.60
2023-01-05T08:55:36.269Z,10.40
2023-01-05T08:58:05.646Z,10.90
2023-01-05T09:00:32.370Z,10.60
2023-01-05T09:02:58.954Z,10.50
2023-01-05T09:05:25.706Z,10.70
2023-01-05T09:07:52.303Z,10.60
2023-01-05T09:10:19.076Z,10.90
2023-01-05T09:12:45.574Z,10.60
2023-01-05T09:15:12.731Z,10.60
2023-01-05T09:17:39.213Z,10.70
2023-01-05T09:20:08.633Z,10.70
2023-01-05T09:22:35.642Z,10.80
2023-01-05T09:25:02.588Z,11.00
2023-01-05T09:27:29.320Z,10.80
2023-01-05T09:29:55.808Z,10.90
2023-01-05T09:32:23.528Z,11.00
2023-01-05T09:34:50.111Z,10.80
2023-01-05T09:37:16.613Z,11.10
2023-01-05T09:39:43.135Z,11.30
2023-01-05T09:42:16.422Z,11.00
2023-01-05T09:44:45.321Z,11.00
2023-01-05T09:47:17.397Z,11.20
2023-01-05T09:49:47.880Z,11.20
2023-01-05T09:52:14.683Z,11.00
2023-01-05T09:54:41.259Z,11.00
2023-01-05T09:57:15.200Z,11.10
2023-01-05T09:59:44.790Z,11.20
2023-01-05T10:02:27.038Z,11.20
2023-01-05T10:04:54.800Z,11.20
2023-01-05T10:07:30.962Z,11.20
2023-01-05T10:10:01.304Z,11.30
2023-01-05T10:12:53.674Z,11.30
2023-01-05T10:15:20.996Z,11.30
2023-01-05T10:17:48.624Z,11.40
2023-01-05T10:20:20.136Z,11.50
2023-01-05T10:23:00.075Z,11.40
2023-01-05T10:25:34.043Z,11.40
2023-01-05T10:28:19.536Z,11.40
2023-01-05T10:30:55.186Z,11.50
2023-01-05T10:33:41.536Z,11.50
2023-01-05T10:36:49.294Z,11.60
2023-01-05T10:39:23.690Z,11.50
2023-01-05T10:41:58.394Z,11.50
2023-01-05T10:44:58.331Z,11.50
2023-01-05T10:47:27.839Z,11.50
2023-01-05T10:49:54.513Z,11.40
2023-01-05T10:52:22.321Z,11.40
2023-01-05T10:54:53.204Z,11.50
2023-01-05T10:57:38.084Z,11.50
2023-01-05T11:00:18.975Z,11.50
2023-01-05T11:02:59.451Z,11.50
2023-01-05T11:05:30.194Z,11.50
2023-01-05T11:08:00.578Z,11.60
2023-01-05T11:10:30.265Z,11.60
2023-01-05T11:13:02.817Z,11.60
2023-01-05T11:15:31.705Z,11.70
2023-01-05T11:17:58.566Z,11.60
2023-01-05T11:20:27.327Z,11.60
2023-01-05T11:22:53.943Z,11.70
2023-01-05T11:25:26.647Z,11.60
2023-01-05T11:28:10.246Z,11.80
2023-01-05T11:30:37.928Z,11.80
2023-01-05T11:33:17.243Z,11.80
2023-01-05T11:35:46.475Z,11.90
2023-01-05T11:38:22.707Z,11.90
2023-01-05T11:40:49.880Z,12.00
2023-01-05T11:43:19.507Z,12.60
2023-01-05T11:45:50.261Z,12.00
2023-01-05T11:48:21.276Z,12.10
2023-01-05T11:50:50.105Z,12.00
2023-01-05T11:53:36.144Z,12.00
2023-01-05T11:56:05.302Z,12.00
2023-01-05T11:58:33.472Z,11.90
2023-01-05T12:01:21.623Z,11.80
2023-01-05T12:04:05.901Z,11.90
2023-01-05T12:07:00.667Z,12.00
2023-01-05T12:09:34.708Z,12.10
2023-01-05T12:12:35.548Z,12.20
2023-01-05T12:15:37.770Z,12.20
2023-01-05T12:18:16.367Z,12.10
2023-01-05T12:20:55.689Z,12.20
2023-01-05T12:23:41.888Z,12.00
2023-01-05T12:26:18.736Z,12.10
2023-01-05T12:30:10.800Z,12.10
2023-01-05T12:35:36.391Z,12.20
2023-01-05T12:38:18.842Z,12.20
2023-01-05T12:41:18.790Z,12.20
2023-01-05T12:43:56.285Z,12.10
2023-01-05T12:46:38.331Z,12.10
2023-01-05T12:49:11.179Z,12.00
2023-01-05T12:51:42.785Z,12.00
2023-01-05T12:54:17.171Z,11.80
2023-01-05T12:56:48.028Z,12.40
2023-01-05T12:59:22.815Z,11.90
2023-01-05T13:01:55.137Z,12.30
2023-01-05T13:04:44.574Z,12.10
2023-01-05T13:07:20.599Z,12.00
2023-01-05T13:09:52.285Z,12.00
2023-01-05T13:12:18.997Z,12.00
2023-01-05T13:14:55.077Z,11.90
2023-01-05T13:17:25.579Z,11.90
2023-01-05T13:19:59.229Z,11.80
2023-01-05T13:22:32.231Z,11.80
2023-01-05T13:25:03.498Z,11.80
2023-01-05T13:27:33.181Z,11.80
2023-01-05T13:30:01.974Z,11.90
2023-01-05T13:32:42.378Z,11.80
2023-01-05T13:35:38.430Z,11.80
2023-01-05T13:38:50.749Z,11.70
2023-01-05T13:41:39.606Z,11.70
2023-01-05T13:44:30.600Z,11.70
2023-01-05T13:47:17.645Z,11.60
2023-01-05T13:50:11.721Z,11.80
2023-01-05T13:52:56.304Z,11.60
2023-01-05T13:55:26.247Z,11.60
2023-01-05T13:57:54.905Z,11.70
2023-01-05T14:00:25.689Z,11.60
2023-01-05T14:03:07.095Z,11.60
2023-01-05T14:05:46.181Z,11.60
2023-01-05T14:08:20.783Z,11.70
2023-01-05T14:11:12.443Z,11.70
2023-01-05T14:13:48.635Z,11.60
2023-01-05T14:16:49.866Z,11.70
2023-01-05T14:19:22.434Z,11.60
2023-01-05T14:22:02.341Z,12.00
2023-01-05T14:24:32.598Z,11.60
2023-01-05T14:27:03.224Z,11.60
2023-01-05T14:30:09.254Z,12.20
2023-01-05T14:32:45.025Z,11.60
2023-01-05T14:35:22.719Z,11.70
2023-01-05T14:37:56.931Z,11.60
2023-01-05T14:40:31.537Z,11.90
2023-01-05T14:43:00.141Z,11.40
2023-01-05T14:45:29.093Z,11.40
2023-01-05T14:47:57.963Z,11.40
2023-01-05T14:50:29.229Z,11.30
2023-01-05T14:52:58.983Z,11.20
2023-01-05T14:55:38.305Z,11.20
2023-01-05T14:58:11.827Z,11.10
2023-01-05T15:00:55.471Z,11.10
2023-01-05T15:03:30.522Z,11.00
2023-01-05T15:06:03.370Z,11.00
2023-01-05T15:08:52.981Z,10.90
2023-01-05T15:11:53.089Z,10.90
2023-01-05T15:14:52.116Z,10.90
2023-01-05T15:17:55.400Z,11.30
2023-01-05T15:20:53.320Z,10.80
2023-01-05T15:23:52.699Z,10.70
2023-01-05T15:26:35.869Z,10.70
2023-01-05T15:29:32.972Z,10.80
2023-01-05T15:32:05.745Z,10.70
2023-01-05T15:34:37.783Z,10.80
2023-01-05T15:37:12.525Z,10.70
2023-01-05T15:39:46.583Z,10.50
2023-01-05T15:42:18.058Z,10.40
2023-01-05T15:44:47.574Z,10.50
2023-01-05T15:47:15.825Z,10.50
2023-01-05T15:49:43.399Z,10.30
2023-01-05T15:52:19.867Z,10.30
2023-01-05T15:54:58.701Z,10.20
2023-01-05T15:57:25.432Z,10.20
2023-01-05T15:59:52.370Z,10.70
2023-01-05T16:02:23.283Z,10.30
2023-01-05T16:05:08.775Z,10.20
2023-01-05T16:07:39.949Z,10.30
2023-01-05T16:10:17.119Z,10.30
2023-01-05T16:12:44.172Z,10.30
2023-01-05T16:15:13.936Z,10.30
2023-01-05T16:17:40.915Z,10.30
2023-01-05T16:20:13.853Z,10.40
2023-01-05T16:22:47.792Z,10.30
2023-01-05T16:25:20.289Z,10.30
2023-01-05T16:27:49.216Z,10.40
2023-01-05T16:30:27.552Z,10.40
2023-01-05T16:32:59.009Z,10.30
2023-01-05T16:35:38.504Z,10.30
2023-01-05T16:38:13.927Z,10.40
2023-01-05T16:40:57.187Z,10.30
2023-01-05T16:43:30.521Z,10.40
2023-01-05T16:46:24.681Z,10.40
2023-01-05T16:48:53.664Z,10.40
2023-01-05T16:51:21.678Z,10.40
2023-01-05T16:53:51.189Z,10.40
2023-01-05T16:56:19.695Z,10.30
2023-01-05T16:58:46.930Z,10.40
2023-01-05T17:01:23.482Z,10.20
2023-01-05T17:03:50.645Z,10.30
2023-01-05T17:06:27.827Z,10.20
2023-01-05T17:08:58.049Z,10.30
2023-01-05T17:11:30.056Z,10.30
2023-01-05T17:13:56.835Z,10.40
2023-01-05T17:16:23.517Z,11.10
2023-01-05T17:18:50.194Z,10.30
2023-01-05T17:21:18.938Z,10.30
2023-01-05T17:23:57.085Z,10.30
2023-01-05T17:26:27.267Z,10.40
2023-01-05T17:28:56.959Z,10.30
2023-01-05T17:31:23.512Z,10.40
2023-01-05T17:33:50.056Z,10.50
2023-01-05T17:36:16.823Z,10.20
2023-01-05T17:38:44.492Z,10.30
2023-01-05T17:41:12.741Z,10.30
2023-01-05T17:43:43.711Z,10.30
2023-01-05T17:46:15.416Z,10.30
2023-01-05T17:48:41.976Z,10.40
2023-01-05T17:53:40.063Z,10.30
2023-01-05T17:56:07.355Z,10.30
2023-01-05T17:58:33.966Z,10.20
2023-01-05T18:01:01.296Z,10.20
2023-01-05T18:03:27.808Z,10.30
2023-01-05T18:05:54.393Z,10.30
2023-01-05T18:08:21.357Z,10.20
2023-01-05T18:10:47.938Z,10.20
2023-01-05T18:13:15.747Z,10.30
2023-01-05T18:15:47.045Z,10.30
2023-01-05T18:18:14.224Z,10.10
2023-01-05T18:20:41.823Z,10.30
2023-01-05T18:23:08.997Z,10.20
2023-01-05T18:25:36.498Z,10.20
2023-01-05T18:28:03.279Z,10.30
2023-01-05T18:30:30.085Z,10.30
2023-01-05T18:32:56.699Z,10.40
2023-01-05T18:35:23.975Z,10.20
2023-01-05T18:37:50.536Z,10.30
2023-01-05T18:40:17.351Z,10.20
2023-01-05T18:42:43.876Z,10.20
2023-01-05T18:45:18.914Z,10.30
2023-01-05T18:47:56.012Z,10.30
2023-01-05T18:50:22.565Z,10.40
2023-01-05T18:52:49.785Z,10.40
2023-01-05T18:55:16.451Z,10.30
2023-01-05T18:57:43.046Z,10.40
2023-01-05T19:00:11.160Z,10.30
2023-01-05T19:02:39.000Z,10.20
2023-01-05T19:05:11.151Z,10.30
2023-01-05T19:07:38.878Z,10.20
2023-01-05T19:10:07.237Z,10.30
2023-01-05T19:12:33.789Z,10.40
2023-01-05T19:15:00.308Z,10.40
2023-01-05T19:17:26.891Z,10.40
2023-01-05T19:19:54.207Z,10.60
2023-01-05T19:22:20.716Z,10.50
2023-01-05T19:24:47.217Z,10.50
2023-01-05T19:27:14.417Z,10.50
2023-01-05T19:29:41.240Z,10.60
2023-01-05T19:32:07.757Z,10.60
2023-01-05T19:34:34.305Z,10.60
2023-01-05T19:37:02.544Z,10.50
2023-01-05T19:39:29.079Z,10.60
2023-01-05T19:41:55.628Z,10.60
2023-01-05T19:44:23.019Z,10.50
2023-01-05T19:46:52.390Z,10.80
2023-01-05T19:49:20.833Z,10.60
2023-01-05T19:51:47.892Z,10.70
2023-01-05T19:54:15.113Z,10.60
2023-01-05T19:56:42.745Z,10.50
2023-01-05T19:59:14.720Z,10.90
2023-01-05T20:01:42.250Z,10.70
2023-01-05T20:04:09.025Z,10.70
2023-01-05T20:06:37.487Z,10.80
2023-01-05T20:09:06.561Z,10.80
2023-01-05T20:11:38.655Z,10.70
2023-01-05T20:14:09.134Z,10.80
2023-01-05T20:16:36.593Z,10.70
2023-01-05T20:19:04.770Z,10.90
2023-01-05T20:21:31.871Z,10.60
2023-01-05T20:24:00.342Z,10.70
2023-01-05T20:26:28.777Z,10.70
2023-01-05T20:28:59.979Z,10.70
2023-01-05T20:31:30.627Z,10.60
2023-01-05T20:34:00.457Z,10.70
2023-01-05T20:36:28.196Z,10.70
2023-01-05T20:38:55.400Z,10.70
2023-01-05T20:41:24.753Z,10.70
2023-01-05T20:43:52.432Z,10.50
2023-01-05T20:46:21.200Z,10.60
2023-01-05T20:48:48.574Z,10.70
2023-01-05T20:51:15.455Z,10.50
2023-01-05T20:53:43.430Z,10.50
2023-01-05T20:56:12.643Z,10.50
2023-01-05T20:58:40.388Z,10.50
2023-01-05T21:01:10.663Z,10.50
2023-01-05T21:03:38.614Z,10.60
2023-01-05T21:06:06.369Z,10.60
2023-01-05T21:08:33.358Z,10.50
2023-01-05T21:11:02.293Z,10.70
2023-01-05T21:13:32.352Z,10.50
2023-01-05T21:16:03.493Z,10.60
2023-01-05T21:18:30.708Z,10.50
2023-01-05T21:20:57.777Z,10.40
2023-01-05T21:23:24.582Z,10.40
2023-01-05T21:26:06.768Z,10.50
2023-01-05T21:28:36.353Z,10.40
2023-01-05T21:31:04.335Z,10.40
2023-01-05T21:33:31.077Z,10.30
2023-01-05T21:35:57.753Z,10.30
2023-01-05T21:38:24.817Z,10.40
2023-01-05T21:40:51.517Z,10.20
2023-01-05T21:43:25.281Z,10.20
2023-01-05T21:45:52.458Z,10.30
2023-01-05T21:48:18.985Z,10.20
2023-01-05T21:51:00.201Z,10.40
2023-01-05T21:53:44.706Z,10.10
2023-01-05T21:56:26.169Z,10.20
2023-01-05T21:58:52.988Z,10.30
2023-01-05T22:01:20.411Z,10.10
2023-01-05T22:03:47.067Z,10.10
2023-01-05T22:06:13.578Z,10.10
2023-01-05T22:08:40.080Z,10.00
2023-01-05T22:11:06.719Z,9.90
2023-01-05T22:13:35.580Z,10.40
2023-01-05T22:16:02.460Z,10.00
2023-01-05T22:18:29.900Z,10.00
2023-01-05T22:21:00.954Z,10.00
2023-01-05T22:23:29.002Z,10.00
2023-01-05T22:26:00.343Z,10.50
2023-01-05T22:28:27.038Z,10.00
2023-01-05T22:31:01.317Z,10.00
2023-01-05T22:33:30.040Z,10.10
2023-01-05T22:35:57.654Z,10.20
2023-01-05T22:38:24.174Z,10.10
2023-01-05T22:40:53.293Z,10.20
2023-01-05T22:43:19.861Z,10.20
2023-01-05T22:45:46.512Z,10.30
2023-01-05T22:48:13.547Z,10.30
2023-01-05T22:50:40.750Z,10.20
2023-01-05T22:53:07.246Z,10.20
2023-01-05T22:55:33.787Z,10.30
2023-01-05T22:58:00.287Z,10.30
2023-01-05T23:00:27.036Z,10.30
2023-01-05T23:02:54.830Z,10.40
2023-01-05T23:05:21.361Z,10.30
2023-01-05T23:07:48.501Z,10.30
2023-01-05T23:10:15.124Z,10.30
2023-01-05T23:12:41.623Z,10.30
2023-01-05T23:15:08.861Z,10.40
2023-01-05T23:17:35.402Z,10.30
2023-01-05T23:20:01.978Z,10.30
2023-01-05T23:22:28.552Z,10.40
2023-01-05T23:24:55.696Z,10.40
2023-01-05T23:27:22.457Z,10.50
2023-01-05T23:29:48.962Z,10.40
2023-01-05T23:32:15.474Z,10.40
2023-01-05T23:34:41.990Z,10.50
2023-01-05T23:37:08.485Z,10.30
2023-01-05T23:39:35.116Z,10.30
2023-01-05T23:42:02.252Z,10.60
2023-01-05T23:44:28.746Z,10.40
2023-01-05T23:46:55.271Z,10.40
2023-01-05T23:49:21.800Z,10.50
2023-01-05T23:51:48.314Z,10.50
2023-01-05T23:54:14.829Z,10.40
2023-01-05T23:56:41.330Z,10.40
2023-01-05T23:59:08.980Z,10.40
